1917 NOT_NAMED (1917087S13147)


IBTrACS version v04r00. Visit IBTrACS website for data access.
Please direct all questions to the IBTrACS Q and A forum

Storm track - Intensity - Wind Radii - Intensity Data - Source Data - All data

Summary Information

Storm ID 1917087S13147
Start Mar 27 23Z
End Mar 30 23Z
ATCF IDs
Track status Best track data.

Storm track plot

Map of storm track

Intensity plots

No Intensity information for this storm


Radial wind information

No radial wind information for this storm


Position and Intensity Table

BASIN ISO_TIME_________ NATURE LAT LON
degrees north degrees east
SP 1917-03-27 23:00:00 NR -13.40 147.30
SP 1917-03-28 00:00:00 NR -13.60 147.70
SP 03:00:00 NR -14.21 148.89
SP 06:00:00 NR -14.84 150.08
SP 09:00:00 NR -15.51 151.24
SP 11:00:00 NR -16.00 152.00
SP 12:00:00 NR -16.26 152.37
SP 15:00:00 NR -17.05 153.45
SP 18:00:00 NR -17.83 154.46
SP 21:00:00 NR -18.52 155.37
SP 23:00:00 NR -18.90 155.90
SP 1917-03-29 00:00:00 NR -19.05 156.14
SP 03:00:00 NR -19.38 156.78
SP 06:00:00 NR -19.59 157.31
SP 09:00:00 NR -19.72 157.79
SP 11:00:00 NR -19.80 158.10
SP 12:00:00 NR -19.85 158.28
SP 15:00:00 NR -20.00 158.82
SP 18:00:00 NR -20.12 159.35
SP 21:00:00 NR -20.23 159.86
SP 23:00:00 NR -20.30 160.20
SP 1917-03-30 00:00:00 NR -20.34 160.37
SP 03:00:00 NR -20.46 160.87
SP 06:00:00 NR -20.58 161.35
SP 09:00:00 NR -20.71 161.81
SP 11:00:00 NR -20.80 162.10
SP 12:00:00 NR -20.85 162.24
SP 15:00:00 NR -20.99 162.63
SP 18:00:00 NR -21.14 163.01
SP 21:00:00 NR -21.30 163.36
SP 23:00:00 NR -21.40 163.60

Source Information

Agency Information
USA
TOKYO
CMA
HKO
NEWDELHI
REUNION
BOM
NADI
WELLINGTON
DS824
TD9636 cons_worldwide_trop_cyclone_18710101-19891231-006:Line=938
TD9635
NEUMANN
MLC

All available IBTrACS Data

SEASON BASIN SUBBASIN ISO_TIME_________ NATURE LAT LON DIST2LAND LANDFALL IFLAG USA SSHS TD9636 LAT TD9636 LON TD9636 STAGE STORM SPEED STORM DIR
Year degrees north degrees east km km 1 degrees north degrees east kts degrees
1917 SP EA 1917-03-27 23:00:00 NR -13.40 147.30 280 280 __________O___ -1 -13.40 147.30 7 26 117
1917 SP EA 1917-03-28 00:00:00 NR -13.60 147.70 302 302 __________P___ -1 -13.60 147.70 7 26 118
1917 SP EA 03:00:00 NR -14.21 148.89 396 396 __________P___ -1 -14.21 148.89 7 26 118
1917 SP EA 06:00:00 NR -14.84 150.08 459 459 __________P___ -1 -14.84 150.08 7 26 120
1917 SP EA 09:00:00 NR -15.51 151.24 544 544 __________P___ -1 -15.51 151.24 7 26 122
1917 SP EA 11:00:00 NR -16.00 152.00 588 582 __________O___ -1 -16.00 152.00 7 26 124
1917 SP EA 12:00:00 NR -16.26 152.37 587 587 __________P___ -1 -16.26 152.37 7 26 127
1917 SP EA 15:00:00 NR -17.05 153.45 610 610 __________P___ -1 -17.05 153.45 7 26 128
1917 SP EA 18:00:00 NR -17.83 154.46 649 638 __________P___ -1 -17.83 154.46 7 24 129
1917 SP EA 21:00:00 NR -18.52 155.37 655 647 __________P___ -1 -18.52 155.37 7 21 128
1917 SP EA 23:00:00 NR -18.90 155.90 665 665 __________O___ -1 -18.90 155.90 7 18 125
1917 SP EA 1917-03-29 00:00:00 NR -19.05 156.14 675 675 __________P___ -1 -19.05 156.14 7 14 120
1917 SP EA 03:00:00 NR -19.38 156.78 703 703 __________P___ -1 -19.38 156.78 7 12 116
1917 SP EA 06:00:00 NR -19.59 157.31 704 651 __________P___ -1 -19.59 157.31 7 10 110
1917 SP EA 09:00:00 NR -19.72 157.79 651 618 __________P___ -1 -19.72 157.79 7 9 106
1917 SP EA 11:00:00 NR -19.80 158.10 618 597 __________O___ -1 -19.80 158.10 7 10 106
1917 SP EA 12:00:00 NR -19.85 158.28 596 543 __________P___ -1 -19.85 158.28 7 11 106
1917 SP EA 15:00:00 NR -20.00 158.82 543 490 __________P___ -1 -20.00 158.82 7 10 105
1917 SP EA 18:00:00 NR -20.12 159.35 490 438 __________P___ -1 -20.12 159.35 7 10 103
1917 SP EA 21:00:00 NR -20.23 159.86 427 396 __________P___ -1 -20.23 159.86 7 10 103
1917 SP MM 23:00:00 NR -20.30 160.20 396 385 __________O___ -1 -20.30 160.20 7 10 103
1917 SP MM 1917-03-30 00:00:00 NR -20.34 160.37 375 333 __________P___ -1 -20.34 160.37 7 10 104
1917 SP MM 03:00:00 NR -20.46 160.87 323 283 __________P___ -1 -20.46 160.87 7 10 105
1917 SP MM 06:00:00 NR -20.58 161.35 272 233 __________P___ -1 -20.58 161.35 7 9 106
1917 SP MM 09:00:00 NR -20.71 161.81 233 205 __________P___ -1 -20.71 161.81 7 9 107
1917 SP MM 11:00:00 NR -20.80 162.10 205 195 __________O___ -1 -20.80 162.10 7 8 109
1917 SP MM 12:00:00 NR -20.85 162.24 195 165 __________P___ -1 -20.85 162.24 7 8 111
1917 SP MM 15:00:00 NR -20.99 162.63 165 137 __________P___ -1 -20.99 162.63 7 8 112
1917 SP MM 18:00:00 NR -21.14 163.01 137 127 __________P___ -1 -21.14 163.01 7 7 114
1917 SP MM 21:00:00 NR -21.30 163.36 117 106 __________P___ -1 -21.30 163.36 7 7 115
1917 SP MM 23:00:00 NR -21.40 163.60 106 __________O___ -1 -21.40 163.60 7 7 115